sensor_id;sensor_type;location;lat;lon;timestamp;P1;durP1;ratioP1;P2;durP2;ratioP2
18290;SDS011;9271;48.590;8.866;2023-02-15T00:01:55;24.23;;;18.23;;
18290;SDS011;9271;48.590;8.866;2023-02-15T00:04:23;27.60;;;18.57;;
18290;SDS011;9271;48.590;8.866;2023-02-15T00:07:10;29.50;;;19.47;;
18290;SDS011;9271;48.590;8.866;2023-02-15T00:09:38;26.30;;;18.50;;
18290;SDS011;9271;48.590;8.866;2023-02-15T00:12:05;29.13;;;20.23;;
18290;SDS011;9271;48.590;8.866;2023-02-15T00:14:32;29.37;;;20.43;;
18290;SDS011;9271;48.590;8.866;2023-02-15T00:17:00;28.93;;;20.23;;
18290;SDS011;9271;48.590;8.866;2023-02-15T00:19:26;27.50;;;20.17;;
18290;SDS011;9271;48.590;8.866;2023-02-15T00:21:53;28.10;;;19.13;;
18290;SDS011;9271;48.590;8.866;2023-02-15T00:24:20;31.23;;;20.03;;
18290;SDS011;9271;48.590;8.866;2023-02-15T00:26:47;28.73;;;20.63;;
18290;SDS011;9271;48.590;8.866;2023-02-15T00:29:14;31.83;;;21.07;;
18290;SDS011;9271;48.590;8.866;2023-02-15T00:31:42;29.23;;;19.63;;
18290;SDS011;9271;48.590;8.866;2023-02-15T00:34:12;32.97;;;20.53;;
18290;SDS011;9271;48.590;8.866;2023-02-15T00:36:40;33.83;;;21.30;;
18290;SDS011;9271;48.590;8.866;2023-02-15T00:39:07;38.13;;;21.77;;
18290;SDS011;9271;48.590;8.866;2023-02-15T00:41:34;33.07;;;21.50;;
18290;SDS011;9271;48.590;8.866;2023-02-15T00:44:01;32.83;;;20.27;;
18290;SDS011;9271;48.590;8.866;2023-02-15T00:46:28;28.27;;;20.13;;
18290;SDS011;9271;48.590;8.866;2023-02-15T00:48:55;28.77;;;20.00;;
18290;SDS011;9271;48.590;8.866;2023-02-15T00:51:23;29.33;;;20.47;;
18290;SDS011;9271;48.590;8.866;2023-02-15T00:53:50;28.60;;;20.07;;
18290;SDS011;9271;48.590;8.866;2023-02-15T00:56:16;28.57;;;19.03;;
18290;SDS011;9271;48.590;8.866;2023-02-15T00:58:43;29.70;;;19.63;;
18290;SDS011;9271;48.590;8.866;2023-02-15T01:01:10;27.43;;;18.80;;
18290;SDS011;9271;48.590;8.866;2023-02-15T01:03:39;29.90;;;19.03;;
18290;SDS011;9271;48.590;8.866;2023-02-15T01:06:06;26.40;;;18.10;;
18290;SDS011;9271;48.590;8.866;2023-02-15T01:08:35;25.90;;;17.83;;
18290;SDS011;9271;48.590;8.866;2023-02-15T01:11:02;28.23;;;16.30;;
18290;SDS011;9271;48.590;8.866;2023-02-15T01:13:30;22.43;;;16.70;;
18290;SDS011;9271;48.590;8.866;2023-02-15T01:15:57;24.87;;;17.07;;
18290;SDS011;9271;48.590;8.866;2023-02-15T01:18:23;25.27;;;17.53;;
18290;SDS011;9271;48.590;8.866;2023-02-15T01:20:50;29.23;;;18.83;;
18290;SDS011;9271;48.590;8.866;2023-02-15T01:23:17;26.97;;;17.00;;
18290;SDS011;9271;48.590;8.866;2023-02-15T01:25:45;24.60;;;17.37;;
18290;SDS011;9271;48.590;8.866;2023-02-15T01:28:11;26.63;;;17.27;;
18290;SDS011;9271;48.590;8.866;2023-02-15T01:30:38;25.43;;;17.40;;
18290;SDS011;9271;48.590;8.866;2023-02-15T01:33:07;24.50;;;17.57;;
18290;SDS011;9271;48.590;8.866;2023-02-15T01:35:42;27.17;;;17.00;;
18290;SDS011;9271;48.590;8.866;2023-02-15T01:38:09;25.53;;;16.97;;
18290;SDS011;9271;48.590;8.866;2023-02-15T01:40:36;23.87;;;16.93;;
18290;SDS011;9271;48.590;8.866;2023-02-15T01:43:08;27.83;;;16.97;;
18290;SDS011;9271;48.590;8.866;2023-02-15T01:45:36;24.53;;;17.30;;
18290;SDS011;9271;48.590;8.866;2023-02-15T01:48:03;26.43;;;16.73;;
18290;SDS011;9271;48.590;8.866;2023-02-15T01:50:32;28.50;;;17.43;;
18290;SDS011;9271;48.590;8.866;2023-02-15T01:53:03;24.10;;;16.17;;
18290;SDS011;9271;48.590;8.866;2023-02-15T01:55:33;25.17;;;16.97;;
18290;SDS011;9271;48.590;8.866;2023-02-15T01:58:02;27.00;;;17.67;;
18290;SDS011;9271;48.590;8.866;2023-02-15T02:00:30;26.40;;;17.63;;
18290;SDS011;9271;48.590;8.866;2023-02-15T02:02:58;25.87;;;17.40;;
18290;SDS011;9271;48.590;8.866;2023-02-15T02:05:26;28.53;;;16.87;;
18290;SDS011;9271;48.590;8.866;2023-02-15T02:07:53;27.37;;;17.23;;
18290;SDS011;9271;48.590;8.866;2023-02-15T02:10:23;25.97;;;17.63;;
18290;SDS011;9271;48.590;8.866;2023-02-15T02:12:51;30.03;;;17.80;;
18290;SDS011;9271;48.590;8.866;2023-02-15T02:15:21;26.80;;;18.07;;
18290;SDS011;9271;48.590;8.866;2023-02-15T02:18:10;25.57;;;16.77;;
18290;SDS011;9271;48.590;8.866;2023-02-15T02:27:09;26.40;;;16.70;;
18290;SDS011;9271;48.590;8.866;2023-02-15T02:29:50;23.27;;;16.50;;
18290;SDS011;9271;48.590;8.866;2023-02-15T02:35:37;26.77;;;17.00;;
18290;SDS011;9271;48.590;8.866;2023-02-15T02:38:10;24.60;;;16.43;;
18290;SDS011;9271;48.590;8.866;2023-02-15T02:40:45;25.50;;;17.33;;
18290;SDS011;9271;48.590;8.866;2023-02-15T02:43:19;25.80;;;16.80;;
18290;SDS011;9271;48.590;8.866;2023-02-15T02:45:52;24.10;;;16.80;;
18290;SDS011;9271;48.590;8.866;2023-02-15T02:48:24;22.57;;;15.33;;
18290;SDS011;9271;48.590;8.866;2023-02-15T02:50:55;24.50;;;16.63;;
18290;SDS011;9271;48.590;8.866;2023-02-15T02:53:21;28.03;;;16.27;;
18290;SDS011;9271;48.590;8.866;2023-02-15T02:55:49;25.50;;;16.50;;
18290;SDS011;9271;48.590;8.866;2023-02-15T02:58:21;21.87;;;15.30;;
18290;SDS011;9271;48.590;8.866;2023-02-15T03:00:54;25.00;;;16.53;;
18290;SDS011;9271;48.590;8.866;2023-02-15T03:03:24;24.47;;;16.13;;
18290;SDS011;9271;48.590;8.866;2023-02-15T03:05:56;22.67;;;15.57;;
18290;SDS011;9271;48.590;8.866;2023-02-15T03:08:26;25.70;;;16.10;;
18290;SDS011;9271;48.590;8.866;2023-02-15T03:10:59;28.50;;;16.53;;
18290;SDS011;9271;48.590;8.866;2023-02-15T03:13:27;24.97;;;16.53;;
18290;SDS011;9271;48.590;8.866;2023-02-15T03:15:54;24.37;;;15.80;;
18290;SDS011;9271;48.590;8.866;2023-02-15T03:18:41;23.90;;;15.37;;
18290;SDS011;9271;48.590;8.866;2023-02-15T03:21:18;19.77;;;14.70;;
18290;SDS011;9271;48.590;8.866;2023-02-15T03:23:48;24.80;;;16.07;;
18290;SDS011;9271;48.590;8.866;2023-02-15T03:26:18;26.37;;;15.53;;
18290;SDS011;9271;48.590;8.866;2023-02-15T03:28:47;25.97;;;15.73;;
18290;SDS011;9271;48.590;8.866;2023-02-15T03:31:17;25.80;;;16.53;;
18290;SDS011;9271;48.590;8.866;2023-02-15T03:33:48;21.80;;;15.37;;
18290;SDS011;9271;48.590;8.866;2023-02-15T03:36:22;23.27;;;16.07;;
18290;SDS011;9271;48.590;8.866;2023-02-15T03:38:54;27.53;;;17.00;;
18290;SDS011;9271;48.590;8.866;2023-02-15T03:41:26;24.83;;;16.37;;
18290;SDS011;9271;48.590;8.866;2023-02-15T03:43:58;23.70;;;15.57;;
18290;SDS011;9271;48.590;8.866;2023-02-15T03:46:31;26.40;;;16.70;;
18290;SDS011;9271;48.590;8.866;2023-02-15T03:49:06;24.87;;;15.73;;
18290;SDS011;9271;48.590;8.866;2023-02-15T03:51:37;24.67;;;14.93;;
18290;SDS011;9271;48.590;8.866;2023-02-15T03:54:07;24.70;;;15.50;;
18290;SDS011;9271;48.590;8.866;2023-02-15T03:56:36;23.50;;;15.97;;
18290;SDS011;9271;48.590;8.866;2023-02-15T03:59:04;23.13;;;15.20;;
18290;SDS011;9271;48.590;8.866;2023-02-15T04:01:51;22.70;;;15.53;;
18290;SDS011;9271;48.590;8.866;2023-02-15T04:04:32;22.80;;;14.67;;
18290;SDS011;9271;48.590;8.866;2023-02-15T04:07:02;21.10;;;15.13;;
18290;SDS011;9271;48.590;8.866;2023-02-15T04:09:30;20.10;;;14.57;;
18290;SDS011;9271;48.590;8.866;2023-02-15T04:12:14;20.73;;;14.43;;
18290;SDS011;9271;48.590;8.866;2023-02-15T04:14:41;23.63;;;15.07;;
18290;SDS011;9271;48.590;8.866;2023-02-15T04:17:25;22.80;;;15.13;;
18290;SDS011;9271;48.590;8.866;2023-02-15T04:19:52;24.10;;;16.50;;
18290;SDS011;9271;48.590;8.866;2023-02-15T04:22:38;21.20;;;14.73;;
18290;SDS011;9271;48.590;8.866;2023-02-15T04:25:22;19.77;;;14.87;;
18290;SDS011;9271;48.590;8.866;2023-02-15T04:27:50;20.93;;;14.83;;
18290;SDS011;9271;48.590;8.866;2023-02-15T04:30:19;21.27;;;15.07;;
18290;SDS011;9271;48.590;8.866;2023-02-15T04:32:47;19.50;;;14.53;;
18290;SDS011;9271;48.590;8.866;2023-02-15T04:35:14;23.97;;;14.27;;
18290;SDS011;9271;48.590;8.866;2023-02-15T04:37:43;26.07;;;15.07;;
18290;SDS011;9271;48.590;8.866;2023-02-15T04:40:11;29.53;;;16.73;;
18290;SDS011;9271;48.590;8.866;2023-02-15T04:42:39;31.37;;;17.37;;
18290;SDS011;9271;48.590;8.866;2023-02-15T04:45:06;28.00;;;16.07;;
18290;SDS011;9271;48.590;8.866;2023-02-15T04:47:33;25.77;;;15.60;;
18290;SDS011;9271;48.590;8.866;2023-02-15T04:49:59;27.37;;;16.63;;
18290;SDS011;9271;48.590;8.866;2023-02-15T04:52:26;24.20;;;15.27;;
18290;SDS011;9271;48.590;8.866;2023-02-15T04:54:54;27.87;;;16.00;;
18290;SDS011;9271;48.590;8.866;2023-02-15T04:57:21;25.23;;;15.17;;
18290;SDS011;9271;48.590;8.866;2023-02-15T04:59:47;24.87;;;15.60;;
18290;SDS011;9271;48.590;8.866;2023-02-15T05:02:14;26.93;;;16.20;;
18290;SDS011;9271;48.590;8.866;2023-02-15T05:04:40;26.63;;;15.27;;
18290;SDS011;9271;48.590;8.866;2023-02-15T05:07:07;23.63;;;15.77;;
18290;SDS011;9271;48.590;8.866;2023-02-15T05:09:34;23.97;;;15.77;;
18290;SDS011;9271;48.590;8.866;2023-02-15T05:12:02;25.17;;;15.73;;
18290;SDS011;9271;48.590;8.866;2023-02-15T05:14:28;23.10;;;15.40;;
18290;SDS011;9271;48.590;8.866;2023-02-15T05:16:55;24.90;;;15.13;;
18290;SDS011;9271;48.590;8.866;2023-02-15T05:19:23;21.50;;;14.43;;
18290;SDS011;9271;48.590;8.866;2023-02-15T05:21:50;22.23;;;14.87;;
18290;SDS011;9271;48.590;8.866;2023-02-15T05:24:16;23.63;;;15.00;;
18290;SDS011;9271;48.590;8.866;2023-02-15T05:27:02;22.13;;;14.37;;
18290;SDS011;9271;48.590;8.866;2023-02-15T05:29:46;21.43;;;13.87;;
18290;SDS011;9271;48.590;8.866;2023-02-15T05:32:13;22.30;;;13.97;;
18290;SDS011;9271;48.590;8.866;2023-02-15T05:34:40;21.83;;;14.10;;
18290;SDS011;9271;48.590;8.866;2023-02-15T05:37:06;24.60;;;15.20;;
18290;SDS011;9271;48.590;8.866;2023-02-15T05:39:33;21.87;;;15.57;;
18290;SDS011;9271;48.590;8.866;2023-02-15T05:42:00;20.77;;;14.80;;
18290;SDS011;9271;48.590;8.866;2023-02-15T05:44:28;18.60;;;13.60;;
18290;SDS011;9271;48.590;8.866;2023-02-15T05:46:54;26.07;;;16.07;;
18290;SDS011;9271;48.590;8.866;2023-02-15T05:49:21;20.20;;;14.07;;
18290;SDS011;9271;48.590;8.866;2023-02-15T05:51:48;20.20;;;13.63;;
18290;SDS011;9271;48.590;8.866;2023-02-15T05:54:14;23.73;;;15.27;;
18290;SDS011;9271;48.590;8.866;2023-02-15T05:56:41;23.17;;;15.43;;
18290;SDS011;9271;48.590;8.866;2023-02-15T05:59:08;22.07;;;15.30;;
18290;SDS011;9271;48.590;8.866;2023-02-15T06:01:36;20.10;;;14.87;;
18290;SDS011;9271;48.590;8.866;2023-02-15T06:04:02;24.80;;;17.37;;
18290;SDS011;9271;48.590;8.866;2023-02-15T06:06:29;24.40;;;16.77;;
18290;SDS011;9271;48.590;8.866;2023-02-15T06:08:56;24.50;;;16.47;;
18290;SDS011;9271;48.590;8.866;2023-02-15T06:11:23;20.53;;;15.10;;
18290;SDS011;9271;48.590;8.866;2023-02-15T06:13:49;24.33;;;15.80;;
18290;SDS011;9271;48.590;8.866;2023-02-15T06:16:16;25.30;;;16.17;;
18290;SDS011;9271;48.590;8.866;2023-02-15T06:18:44;26.00;;;16.97;;
18290;SDS011;9271;48.590;8.866;2023-02-15T06:21:10;24.60;;;17.17;;
18290;SDS011;9271;48.590;8.866;2023-02-15T06:23:37;24.90;;;17.27;;
18290;SDS011;9271;48.590;8.866;2023-02-15T06:26:04;22.83;;;15.97;;
18290;SDS011;9271;48.590;8.866;2023-02-15T06:28:31;23.57;;;15.57;;
18290;SDS011;9271;48.590;8.866;2023-02-15T06:30:57;22.70;;;14.83;;
18290;SDS011;9271;48.590;8.866;2023-02-15T06:33:24;19.47;;;14.77;;
18290;SDS011;9271;48.590;8.866;2023-02-15T06:35:52;22.63;;;15.60;;
18290;SDS011;9271;48.590;8.866;2023-02-15T06:38:18;20.83;;;14.33;;
18290;SDS011;9271;48.590;8.866;2023-02-15T06:40:46;20.53;;;13.67;;
18290;SDS011;9271;48.590;8.866;2023-02-15T06:43:13;18.23;;;13.07;;
18290;SDS011;9271;48.590;8.866;2023-02-15T06:45:40;19.77;;;13.60;;
18290;SDS011;9271;48.590;8.866;2023-02-15T06:48:07;19.40;;;13.90;;
18290;SDS011;9271;48.590;8.866;2023-02-15T06:50:34;22.23;;;15.20;;
18290;SDS011;9271;48.590;8.866;2023-02-15T06:53:02;19.70;;;14.17;;
18290;SDS011;9271;48.590;8.866;2023-02-15T06:55:29;22.37;;;16.27;;
18290;SDS011;9271;48.590;8.866;2023-02-15T06:57:56;18.77;;;14.17;;
18290;SDS011;9271;48.590;8.866;2023-02-15T07:00:23;21.47;;;16.10;;
18290;SDS011;9271;48.590;8.866;2023-02-15T07:02:52;22.40;;;14.67;;
18290;SDS011;9271;48.590;8.866;2023-02-15T07:05:21;19.67;;;14.20;;
18290;SDS011;9271;48.590;8.866;2023-02-15T07:07:48;18.13;;;14.07;;
18290;SDS011;9271;48.590;8.866;2023-02-15T07:10:16;19.37;;;14.63;;
18290;SDS011;9271;48.590;8.866;2023-02-15T07:12:42;19.27;;;15.70;;
18290;SDS011;9271;48.590;8.866;2023-02-15T07:15:10;21.30;;;15.13;;
18290;SDS011;9271;48.590;8.866;2023-02-15T07:17:38;19.77;;;14.83;;
18290;SDS011;9271;48.590;8.866;2023-02-15T07:20:09;20.83;;;15.00;;
18290;SDS011;9271;48.590;8.866;2023-02-15T07:22:37;19.43;;;14.63;;
18290;SDS011;9271;48.590;8.866;2023-02-15T07:25:05;24.83;;;16.80;;
18290;SDS011;9271;48.590;8.866;2023-02-15T07:27:34;19.67;;;15.37;;
18290;SDS011;9271;48.590;8.866;2023-02-15T07:30:01;19.27;;;14.53;;
18290;SDS011;9271;48.590;8.866;2023-02-15T07:32:29;19.53;;;14.50;;
18290;SDS011;9271;48.590;8.866;2023-02-15T07:34:57;21.73;;;15.17;;
18290;SDS011;9271;48.590;8.866;2023-02-15T07:37:24;20.03;;;14.83;;
18290;SDS011;9271;48.590;8.866;2023-02-15T07:39:52;19.47;;;13.73;;
18290;SDS011;9271;48.590;8.866;2023-02-15T07:42:18;20.90;;;15.27;;
18290;SDS011;9271;48.590;8.866;2023-02-15T07:44:48;19.23;;;13.30;;
18290;SDS011;9271;48.590;8.866;2023-02-15T07:47:15;17.80;;;12.80;;
18290;SDS011;9271;48.590;8.866;2023-02-15T07:49:41;17.13;;;13.10;;
18290;SDS011;9271;48.590;8.866;2023-02-15T07:52:08;14.47;;;11.73;;
18290;SDS011;9271;48.590;8.866;2023-02-15T07:54:35;17.33;;;12.87;;
18290;SDS011;9271;48.590;8.866;2023-02-15T07:57:01;16.00;;;12.23;;
18290;SDS011;9271;48.590;8.866;2023-02-15T07:59:28;16.40;;;12.53;;
18290;SDS011;9271;48.590;8.866;2023-02-15T08:01:56;15.63;;;11.83;;
18290;SDS011;9271;48.590;8.866;2023-02-15T08:04:23;13.37;;;10.90;;
18290;SDS011;9271;48.590;8.866;2023-02-15T08:06:52;15.10;;;11.17;;
18290;SDS011;9271;48.590;8.866;2023-02-15T08:09:20;16.53;;;12.77;;
18290;SDS011;9271;48.590;8.866;2023-02-15T08:11:47;14.77;;;11.20;;
18290;SDS011;9271;48.590;8.866;2023-02-15T08:14:14;12.13;;;9.87;;
18290;SDS011;9271;48.590;8.866;2023-02-15T08:16:43;11.67;;;9.13;;
18290;SDS011;9271;48.590;8.866;2023-02-15T08:19:15;10.27;;;9.20;;
18290;SDS011;9271;48.590;8.866;2023-02-15T08:21:44;10.80;;;8.30;;
18290;SDS011;9271;48.590;8.866;2023-02-15T08:24:14;10.57;;;8.30;;
18290;SDS011;9271;48.590;8.866;2023-02-15T08:26:43;10.67;;;9.00;;
18290;SDS011;9271;48.590;8.866;2023-02-15T08:29:11;10.80;;;9.00;;
18290;SDS011;9271;48.590;8.866;2023-02-15T08:31:39;10.13;;;9.13;;
18290;SDS011;9271;48.590;8.866;2023-02-15T08:34:06;10.90;;;9.70;;
18290;SDS011;9271;48.590;8.866;2023-02-15T08:36:35;10.37;;;8.87;;
18290;SDS011;9271;48.590;8.866;2023-02-15T08:39:03;10.00;;;8.93;;
18290;SDS011;9271;48.590;8.866;2023-02-15T08:41:32;9.13;;;8.23;;
18290;SDS011;9271;48.590;8.866;2023-02-15T08:44:01;10.27;;;9.17;;
18290;SDS011;9271;48.590;8.866;2023-02-15T08:46:30;10.60;;;9.50;;
18290;SDS011;9271;48.590;8.866;2023-02-15T08:48:58;10.90;;;9.73;;
18290;SDS011;9271;48.590;8.866;2023-02-15T08:51:26;9.77;;;8.83;;
18290;SDS011;9271;48.590;8.866;2023-02-15T08:53:57;10.70;;;9.23;;
18290;SDS011;9271;48.590;8.866;2023-02-15T08:56:25;9.17;;;8.27;;
18290;SDS011;9271;48.590;8.866;2023-02-15T08:58:54;9.90;;;8.97;;
18290;SDS011;9271;48.590;8.866;2023-02-15T09:01:21;9.83;;;8.83;;
18290;SDS011;9271;48.590;8.866;2023-02-15T09:03:50;10.23;;;9.23;;
18290;SDS011;9271;48.590;8.866;2023-02-15T09:06:21;10.47;;;9.43;;
18290;SDS011;9271;48.590;8.866;2023-02-15T09:08:48;10.07;;;9.07;;
18290;SDS011;9271;48.590;8.866;2023-02-15T09:11:17;10.80;;;9.70;;
18290;SDS011;9271;48.590;8.866;2023-02-15T09:13:49;11.50;;;9.83;;
18290;SDS011;9271;48.590;8.866;2023-02-15T09:16:17;9.80;;;8.77;;
18290;SDS011;9271;48.590;8.866;2023-02-15T09:18:44;9.30;;;8.00;;
18290;SDS011;9271;48.590;8.866;2023-02-15T09:21:11;10.37;;;8.70;;
18290;SDS011;9271;48.590;8.866;2023-02-15T09:23:40;9.87;;;8.60;;
18290;SDS011;9271;48.590;8.866;2023-02-15T09:26:08;9.53;;;8.63;;
18290;SDS011;9271;48.590;8.866;2023-02-15T09:28:37;11.03;;;9.30;;
18290;SDS011;9271;48.590;8.866;2023-02-15T09:31:05;10.67;;;9.10;;
18290;SDS011;9271;48.590;8.866;2023-02-15T09:33:34;9.60;;;8.70;;
18290;SDS011;9271;48.590;8.866;2023-02-15T09:36:01;10.33;;;9.20;;
18290;SDS011;9271;48.590;8.866;2023-02-15T09:38:28;12.97;;;8.87;;
18290;SDS011;9271;48.590;8.866;2023-02-15T09:40:58;9.60;;;8.70;;
18290;SDS011;9271;48.590;8.866;2023-02-15T09:43:38;10.03;;;8.83;;
18290;SDS011;9271;48.590;8.866;2023-02-15T09:46:17;10.07;;;8.93;;
18290;SDS011;9271;48.590;8.866;2023-02-15T09:48:53;9.23;;;8.33;;
18290;SDS011;9271;48.590;8.866;2023-02-15T09:51:37;9.67;;;8.60;;
18290;SDS011;9271;48.590;8.866;2023-02-15T09:54:30;12.37;;;8.90;;
18290;SDS011;9271;48.590;8.866;2023-02-15T09:57:08;9.43;;;8.43;;
18290;SDS011;9271;48.590;8.866;2023-02-15T09:59:45;10.10;;;8.65;;
18290;SDS011;9271;48.590;8.866;2023-02-15T10:02:25;8.98;;;8.10;;
18290;SDS011;9271;48.590;8.866;2023-02-15T10:05:07;9.57;;;8.45;;
18290;SDS011;9271;48.590;8.866;2023-02-15T10:07:48;10.75;;;8.20;;
18290;SDS011;9271;48.590;8.866;2023-02-15T10:10:38;8.85;;;8.05;;
18290;SDS011;9271;48.590;8.866;2023-02-15T10:13:13;15.80;;;8.00;;
18290;SDS011;9271;48.590;8.866;2023-02-15T10:15:55;12.07;;;8.98;;
18290;SDS011;9271;48.590;8.866;2023-02-15T10:18:39;9.43;;;8.38;;
18290;SDS011;9271;48.590;8.866;2023-02-15T10:21:16;9.63;;;8.63;;
18290;SDS011;9271;48.590;8.866;2023-02-15T10:23:54;10.50;;;9.30;;
18290;SDS011;9271;48.590;8.866;2023-02-15T10:26:34;11.68;;;9.63;;
18290;SDS011;9271;48.590;8.866;2023-02-15T10:29:09;9.75;;;8.85;;
18290;SDS011;9271;48.590;8.866;2023-02-15T10:31:43;11.13;;;9.32;;
18290;SDS011;9271;48.590;8.866;2023-02-15T10:34:15;10.52;;;8.65;;
18290;SDS011;9271;48.590;8.866;2023-02-15T10:36:53;11.65;;;9.00;;
18290;SDS011;9271;48.590;8.866;2023-02-15T10:39:41;10.00;;;9.00;;
18290;SDS011;9271;48.590;8.866;2023-02-15T10:42:17;10.40;;;9.30;;
18290;SDS011;9271;48.590;8.866;2023-02-15T10:44:54;9.52;;;8.63;;
18290;SDS011;9271;48.590;8.866;2023-02-15T10:47:37;10.93;;;9.73;;
18290;SDS011;9271;48.590;8.866;2023-02-15T10:50:24;11.48;;;9.32;;
18290;SDS011;9271;48.590;8.866;2023-02-15T10:53:02;11.45;;;9.30;;
18290;SDS011;9271;48.590;8.866;2023-02-15T10:55:43;10.85;;;9.80;;
18290;SDS011;9271;48.590;8.866;2023-02-15T10:58:17;12.80;;;9.68;;
18290;SDS011;9271;48.590;8.866;2023-02-15T11:00:51;10.95;;;9.35;;
18290;SDS011;9271;48.590;8.866;2023-02-15T11:03:33;12.07;;;10.00;;
18290;SDS011;9271;48.590;8.866;2023-02-15T11:06:16;12.23;;;9.95;;
18290;SDS011;9271;48.590;8.866;2023-02-15T11:08:46;14.05;;;9.98;;
18290;SDS011;9271;48.590;8.866;2023-02-15T11:11:19;15.52;;;10.18;;
18290;SDS011;9271;48.590;8.866;2023-02-15T11:13:50;10.13;;;8.95;;
18290;SDS011;9271;48.590;8.866;2023-02-15T11:16:21;12.10;;;10.13;;
18290;SDS011;9271;48.590;8.866;2023-02-15T11:18:53;13.85;;;9.70;;
18290;SDS011;9271;48.590;8.866;2023-02-15T11:21:22;11.30;;;9.55;;
18290;SDS011;9271;48.590;8.866;2023-02-15T11:23:52;11.32;;;10.00;;
18290;SDS011;9271;48.590;8.866;2023-02-15T11:26:21;13.60;;;9.90;;
18290;SDS011;9271;48.590;8.866;2023-02-15T11:28:55;11.88;;;9.82;;
18290;SDS011;9271;48.590;8.866;2023-02-15T11:31:25;10.75;;;9.30;;
18290;SDS011;9271;48.590;8.866;2023-02-15T11:33:58;13.63;;;9.98;;
18290;SDS011;9271;48.590;8.866;2023-02-15T11:36:31;12.07;;;9.52;;
18290;SDS011;9271;48.590;8.866;2023-02-15T11:39:01;11.82;;;10.55;;
18290;SDS011;9271;48.590;8.866;2023-02-15T11:41:31;13.82;;;9.80;;
18290;SDS011;9271;48.590;8.866;2023-02-15T11:44:05;11.05;;;9.90;;
18290;SDS011;9271;48.590;8.866;2023-02-15T11:46:34;11.52;;;9.75;;
18290;SDS011;9271;48.590;8.866;2023-02-15T11:49:07;11.82;;;9.82;;
18290;SDS011;9271;48.590;8.866;2023-02-15T11:51:46;13.85;;;9.38;;
18290;SDS011;9271;48.590;8.866;2023-02-15T11:54:15;11.50;;;10.40;;
18290;SDS011;9271;48.590;8.866;2023-02-15T11:56:42;10.43;;;9.25;;
18290;SDS011;9271;48.590;8.866;2023-02-15T11:59:10;10.50;;;8.95;;
18290;SDS011;9271;48.590;8.866;2023-02-15T12:01:41;11.65;;;9.70;;
18290;SDS011;9271;48.590;8.866;2023-02-15T12:04:14;12.55;;;9.73;;
18290;SDS011;9271;48.590;8.866;2023-02-15T12:06:51;10.80;;;9.55;;
18290;SDS011;9271;48.590;8.866;2023-02-15T12:09:23;10.70;;;9.63;;
18290;SDS011;9271;48.590;8.866;2023-02-15T12:11:56;10.43;;;9.32;;
18290;SDS011;9271;48.590;8.866;2023-02-15T12:14:47;13.63;;;9.90;;
18290;SDS011;9271;48.590;8.866;2023-02-15T12:17:15;12.95;;;8.80;;
18290;SDS011;9271;48.590;8.866;2023-02-15T12:19:44;12.93;;;9.15;;
18290;SDS011;9271;48.590;8.866;2023-02-15T12:22:18;12.45;;;9.35;;
18290;SDS011;9271;48.590;8.866;2023-02-15T12:24:48;10.90;;;8.70;;
18290;SDS011;9271;48.590;8.866;2023-02-15T12:27:19;9.73;;;8.23;;
18290;SDS011;9271;48.590;8.866;2023-02-15T12:29:47;9.55;;;8.40;;
18290;SDS011;9271;48.590;8.866;2023-02-15T12:32:17;10.20;;;8.27;;
18290;SDS011;9271;48.590;8.866;2023-02-15T12:34:49;9.73;;;8.73;;
18290;SDS011;9271;48.590;8.866;2023-02-15T12:37:17;14.05;;;8.57;;
18290;SDS011;9271;48.590;8.866;2023-02-15T12:39:52;8.95;;;8.07;;
18290;SDS011;9271;48.590;8.866;2023-02-15T12:42:21;9.70;;;8.55;;
18290;SDS011;9271;48.590;8.866;2023-02-15T12:44:56;9.02;;;8.13;;
18290;SDS011;9271;48.590;8.866;2023-02-15T12:47:24;8.60;;;7.70;;
18290;SDS011;9271;48.590;8.866;2023-02-15T12:52:46;8.88;;;8.00;;
18290;SDS011;9271;48.590;8.866;2023-02-15T12:55:18;11.48;;;8.25;;
18290;SDS011;9271;48.590;8.866;2023-02-15T12:57:47;9.15;;;8.20;;
18290;SDS011;9271;48.590;8.866;2023-02-15T13:00:26;13.48;;;8.38;;
18290;SDS011;9271;48.590;8.866;2023-02-15T13:02:56;10.60;;;8.43;;
18290;SDS011;9271;48.590;8.866;2023-02-15T13:05:26;11.98;;;8.40;;
18290;SDS011;9271;48.590;8.866;2023-02-15T13:07:59;15.88;;;8.35;;
18290;SDS011;9271;48.590;8.866;2023-02-15T13:10:29;10.15;;;8.48;;
18290;SDS011;9271;48.590;8.866;2023-02-15T13:12:59;13.88;;;9.25;;
18290;SDS011;9271;48.590;8.866;2023-02-15T13:15:32;12.45;;;9.00;;
18290;SDS011;9271;48.590;8.866;2023-02-15T13:18:01;11.43;;;8.98;;
18290;SDS011;9271;48.590;8.866;2023-02-15T13:20:29;13.32;;;8.82;;
18290;SDS011;9271;48.590;8.866;2023-02-15T13:22:59;17.10;;;7.78;;
18290;SDS011;9271;48.590;8.866;2023-02-15T13:25:32;12.65;;;6.43;;
18290;SDS011;9271;48.590;8.866;2023-02-15T13:28:06;10.70;;;8.20;;
18290;SDS011;9271;48.590;8.866;2023-02-15T13:30:42;9.18;;;7.75;;
18290;SDS011;9271;48.590;8.866;2023-02-15T13:33:12;10.52;;;7.80;;
18290;SDS011;9271;48.590;8.866;2023-02-15T13:35:44;9.00;;;7.25;;
18290;SDS011;9271;48.590;8.866;2023-02-15T13:38:18;11.80;;;7.35;;
18290;SDS011;9271;48.590;8.866;2023-02-15T13:41:00;9.20;;;7.90;;
18290;SDS011;9271;48.590;8.866;2023-02-15T13:43:37;9.20;;;7.53;;
18290;SDS011;9271;48.590;8.866;2023-02-15T13:46:13;11.23;;;7.43;;
18290;SDS011;9271;48.590;8.866;2023-02-15T13:48:51;13.15;;;7.10;;
18290;SDS011;9271;48.590;8.866;2023-02-15T13:51:30;9.43;;;6.68;;
18290;SDS011;9271;48.590;8.866;2023-02-15T13:57:21;8.73;;;6.70;;
18290;SDS011;9271;48.590;8.866;2023-02-15T14:00:02;7.68;;;6.07;;
18290;SDS011;9271;48.590;8.866;2023-02-15T14:02:45;7.65;;;6.45;;
18290;SDS011;9271;48.590;8.866;2023-02-15T14:05:34;8.98;;;6.40;;
18290;SDS011;9271;48.590;8.866;2023-02-15T14:08:13;9.85;;;5.95;;
18290;SDS011;9271;48.590;8.866;2023-02-15T14:10:54;6.68;;;4.90;;
18290;SDS011;9271;48.590;8.866;2023-02-15T14:16:24;7.10;;;5.20;;
18290;SDS011;9271;48.590;8.866;2023-02-15T14:19:02;6.95;;;5.30;;
18290;SDS011;9271;48.590;8.866;2023-02-15T14:21:38;6.00;;;5.50;;
18290;SDS011;9271;48.590;8.866;2023-02-15T14:24:16;7.03;;;5.35;;
18290;SDS011;9271;48.590;8.866;2023-02-15T14:26:53;18.27;;;5.10;;
18290;SDS011;9271;48.590;8.866;2023-02-15T14:29:28;9.25;;;5.20;;
18290;SDS011;9271;48.590;8.866;2023-02-15T14:32:08;6.90;;;5.03;;
18290;SDS011;9271;48.590;8.866;2023-02-15T14:34:41;7.03;;;5.20;;
18290;SDS011;9271;48.590;8.866;2023-02-15T14:37:13;5.65;;;4.70;;
18290;SDS011;9271;48.590;8.866;2023-02-15T14:39:43;6.90;;;5.22;;
18290;SDS011;9271;48.590;8.866;2023-02-15T14:42:38;6.22;;;4.25;;
18290;SDS011;9271;48.590;8.866;2023-02-15T14:45:15;5.53;;;4.30;;
18290;SDS011;9271;48.590;8.866;2023-02-15T14:47:47;7.28;;;4.53;;
18290;SDS011;9271;48.590;8.866;2023-02-15T14:56:04;7.78;;;4.82;;
18290;SDS011;9271;48.590;8.866;2023-02-15T14:58:34;5.78;;;5.18;;
18290;SDS011;9271;48.590;8.866;2023-02-15T15:01:03;8.45;;;5.03;;
18290;SDS011;9271;48.590;8.866;2023-02-15T15:03:32;6.95;;;5.20;;
18290;SDS011;9271;48.590;8.866;2023-02-15T15:06:00;5.30;;;4.65;;
18290;SDS011;9271;48.590;8.866;2023-02-15T15:08:31;7.00;;;4.95;;
18290;SDS011;9271;48.590;8.866;2023-02-15T15:14:01;9.38;;;4.80;;
18290;SDS011;9271;48.590;8.866;2023-02-15T15:16:30;5.85;;;4.70;;
18290;SDS011;9271;48.590;8.866;2023-02-15T15:22:29;6.37;;;5.27;;
18290;SDS011;9271;48.590;8.866;2023-02-15T15:24:56;7.20;;;5.20;;
18290;SDS011;9271;48.590;8.866;2023-02-15T15:36:40;8.50;;;5.60;;
18290;SDS011;9271;48.590;8.866;2023-02-15T15:39:48;13.17;;;9.30;;
18290;SDS011;9271;48.590;8.866;2023-02-15T15:42:37;12.53;;;8.80;;
18290;SDS011;9271;48.590;8.866;2023-02-15T15:45:21;15.70;;;10.47;;
18290;SDS011;9271;48.590;8.866;2023-02-15T15:48:03;22.73;;;7.90;;